createdAt,value
2023-01-17T05:14:51.566Z,100.00
2023-01-17T05:17:55.372Z,100.00
2023-01-17T05:21:04.967Z,100.00
2023-01-17T05:24:07.841Z,100.00
2023-01-17T05:27:11.618Z,100.00
2023-01-17T05:30:14.728Z,100.00
2023-01-17T05:33:17.232Z,100.00
2023-01-17T05:36:21.225Z,100.00
2023-01-17T05:39:24.195Z,100.00
2023-01-17T05:42:27.139Z,100.00
2023-01-17T05:45:31.327Z,100.00
2023-01-17T05:48:34.263Z,100.00
2023-01-17T05:51:37.999Z,100.00
2023-01-17T05:54:40.873Z,100.00
2023-01-17T05:57:43.435Z,100.00
2023-01-17T06:00:46.762Z,100.00
2023-01-17T06:03:49.775Z,100.00
2023-01-17T06:06:52.349Z,100.00
2023-01-17T06:09:55.300Z,100.00
2023-01-17T06:13:12.690Z,100.00
2023-01-17T06:16:15.571Z,100.00
2023-01-17T06:19:18.371Z,100.00
2023-01-17T06:22:21.169Z,100.00
2023-01-17T06:25:23.937Z,100.00
2023-01-17T06:28:26.817Z,100.00
2023-01-17T06:31:29.529Z,100.00
2023-01-17T06:34:32.369Z,100.00
2023-01-17T06:37:34.965Z,100.00
2023-01-17T06:40:37.774Z,100.00
2023-01-17T06:43:40.254Z,100.00
2023-01-17T06:46:43.484Z,100.00
2023-01-17T06:49:46.466Z,100.00
2023-01-17T06:53:03.221Z,100.00
2023-01-17T06:56:06.543Z,100.00
2023-01-17T06:59:09.383Z,100.00
2023-01-17T07:02:11.917Z,100.00
2023-01-17T07:05:16.371Z,100.00
2023-01-17T07:08:20.005Z,100.00
2023-01-17T07:11:23.394Z,100.00
2023-01-17T07:14:26.011Z,100.00
2023-01-17T07:17:28.832Z,100.00
2023-01-17T07:20:32.242Z,100.00
2023-01-17T07:23:35.184Z,100.00
2023-01-17T07:26:40.190Z,100.00
2023-01-17T07:29:43.051Z,100.00
2023-01-17T07:32:52.315Z,100.00
2023-01-17T07:35:55.184Z,100.00
2023-01-17T07:38:57.695Z,100.00
2023-01-17T07:42:00.856Z,100.00
2023-01-17T07:45:04.124Z,100.00
2023-01-17T07:48:07.019Z,100.00
2023-01-17T07:51:09.856Z,100.00
2023-01-17T07:54:12.872Z,100.00
2023-01-17T07:57:15.437Z,100.00
2023-01-17T08:00:18.832Z,100.00
2023-01-17T08:03:21.757Z,100.00
2023-01-17T08:06:25.964Z,100.00
2023-01-17T08:09:28.930Z,100.00
2023-01-17T08:12:31.587Z,100.00
2023-01-17T08:15:34.608Z,100.00
2023-01-17T08:18:37.539Z,100.00
2023-01-17T08:21:41.660Z,100.00
2023-01-17T08:24:44.714Z,100.00
2023-01-17T08:27:47.559Z,100.00
2023-01-17T08:30:50.056Z,100.00
2023-01-17T08:37:30.973Z,100.00
2023-01-17T08:40:33.877Z,100.00
2023-01-17T08:43:36.351Z,100.00
2023-01-17T08:46:40.065Z,100.00
2023-01-17T08:50:03.078Z,100.00
2023-01-17T08:56:53.061Z,100.00
2023-01-17T09:11:10.851Z,100.00
2023-01-17T09:14:14.303Z,100.00
2023-01-17T09:17:17.186Z,100.00
2023-01-17T09:20:20.033Z,100.00
2023-01-17T09:23:23.265Z,100.00
2023-01-17T09:26:29.149Z,100.00
2023-01-17T09:29:32.020Z,100.00
2023-01-17T09:32:34.915Z,100.00
2023-01-17T09:35:37.937Z,100.00
2023-01-17T09:38:41.002Z,93.38
2023-01-17T09:42:07.571Z,85.69
2023-01-17T09:45:18.254Z,73.47
2023-01-17T09:48:31.756Z,66.99
2023-01-17T09:51:36.615Z,60.73
2023-01-17T09:54:42.068Z,51.02
2023-01-17T09:58:03.190Z,41.07
2023-01-17T10:01:18.112Z,44.53
2023-01-17T10:04:55.701Z,43.18
2023-01-17T10:08:16.390Z,47.56
2023-01-17T10:11:34.813Z,56.18
2023-01-17T10:15:03.168Z,59.31
2023-01-17T10:18:30.518Z,64.19
2023-01-17T10:22:37.556Z,73.80
2023-01-17T10:25:48.069Z,74.81
2023-01-17T10:28:53.032Z,80.17
2023-01-17T10:32:01.097Z,80.47
2023-01-17T10:35:16.223Z,80.30
2023-01-17T10:38:22.077Z,87.55
2023-01-17T10:41:39.767Z,91.63
2023-01-17T10:45:04.141Z,90.11
2023-01-17T10:48:28.596Z,88.10
2023-01-17T10:51:49.935Z,87.97
2023-01-17T10:55:39.989Z,90.30
2023-01-17T10:58:42.975Z,93.79
2023-01-17T11:01:45.869Z,91.67
2023-01-17T11:04:54.373Z,93.76
2023-01-17T11:08:26.205Z,90.85
2023-01-17T11:11:32.925Z,85.24
2023-01-17T11:14:36.110Z,85.14
2023-01-17T11:17:53.192Z,91.65
2023-01-17T11:21:20.866Z,89.20
2023-01-17T11:24:37.277Z,88.39
2023-01-17T11:27:41.002Z,70.88
2023-01-17T11:30:52.771Z,64.03
2023-01-17T11:34:32.084Z,65.80
2023-01-17T11:37:35.774Z,72.24
2023-01-17T11:40:42.411Z,83.50
2023-01-17T11:43:57.328Z,73.24
2023-01-17T11:47:12.160Z,63.45
2023-01-17T11:50:24.914Z,63.52
2023-01-17T11:53:34.623Z,66.34
2023-01-17T11:56:37.911Z,68.60
2023-01-17T11:59:44.500Z,69.08
2023-01-17T12:03:39.524Z,72.62
2023-01-17T12:06:57.611Z,68.69
2023-01-17T12:10:13.127Z,69.08
2023-01-17T12:14:00.664Z,72.15
2023-01-17T12:17:45.578Z,68.42
2023-01-17T12:21:10.063Z,68.60
2023-01-17T12:24:21.776Z,67.40
2023-01-17T12:27:34.760Z,71.53
2023-01-17T12:30:40.303Z,76.64
2023-01-17T12:34:11.515Z,79.98
2023-01-17T12:37:37.132Z,85.02
2023-01-17T12:41:09.030Z,81.91
2023-01-17T12:44:16.120Z,82.42
2023-01-17T12:47:20.965Z,81.95
2023-01-17T12:50:32.519Z,83.23
2023-01-17T12:53:47.773Z,82.54
2023-01-17T12:57:04.903Z,82.74
2023-01-17T13:00:10.733Z,82.02
2023-01-17T13:03:42.572Z,82.19
2023-01-17T13:07:00.813Z,80.25
2023-01-17T13:10:31.815Z,82.39
2023-01-17T13:13:36.113Z,81.66
2023-01-17T13:16:57.982Z,84.08
2023-01-17T13:20:14.254Z,82.41
2023-01-17T13:23:29.276Z,82.82
2023-01-17T13:26:40.293Z,85.02
2023-01-17T13:29:57.974Z,88.59
2023-01-17T13:33:18.541Z,91.03
2023-01-17T13:36:59.810Z,90.99
2023-01-17T13:40:18.180Z,94.82
2023-01-17T13:43:34.458Z,90.94
2023-01-17T13:47:04.281Z,92.59
2023-01-17T13:57:30.431Z,94.13
2023-01-17T14:00:36.051Z,98.69
2023-01-17T14:03:51.138Z,100.00
2023-01-17T14:06:56.671Z,100.00
2023-01-17T14:09:59.520Z,100.00
2023-01-17T14:13:04.171Z,100.00
2023-01-17T14:16:22.407Z,100.00
2023-01-17T14:19:27.189Z,100.00
2023-01-17T14:22:35.263Z,100.00
2023-01-17T14:25:41.468Z,100.00
2023-01-17T14:28:44.404Z,100.00
2023-01-17T14:31:49.234Z,100.00
2023-01-17T14:34:57.218Z,100.00
2023-01-17T14:38:03.029Z,100.00
2023-01-17T14:41:13.933Z,100.00
2023-01-17T14:44:17.272Z,100.00
2023-01-17T14:47:20.307Z,100.00
2023-01-17T14:50:30.381Z,100.00
2023-01-17T14:53:33.956Z,100.00
2023-01-17T14:56:36.603Z,100.00
2023-01-17T14:59:39.542Z,100.00
2023-01-17T15:02:44.135Z,100.00
2023-01-17T15:05:50.330Z,100.00
2023-01-17T15:08:56.084Z,100.00
2023-01-17T15:11:59.551Z,100.00
2023-01-17T15:15:02.178Z,100.00
2023-01-17T15:18:15.106Z,100.00
2023-01-17T15:21:21.160Z,100.00
2023-01-17T15:24:29.508Z,100.00
2023-01-17T15:27:32.511Z,100.00
2023-01-17T15:30:35.506Z,100.00
2023-01-17T15:33:41.447Z,100.00
2023-01-17T15:36:48.892Z,100.00
2023-01-17T15:39:51.790Z,100.00
2023-01-17T15:42:58.671Z,100.00
2023-01-17T15:46:04.994Z,100.00
2023-01-17T15:49:16.631Z,100.00
2023-01-17T15:52:21.522Z,100.00
2023-01-17T15:55:36.044Z,100.00
2023-01-17T15:58:38.535Z,100.00
2023-01-17T16:01:44.339Z,100.00
2023-01-17T16:04:47.186Z,100.00
2023-01-17T16:07:52.871Z,100.00
2023-01-17T16:11:02.032Z,100.00
2023-01-17T16:14:07.569Z,100.00
2023-01-17T16:17:17.798Z,100.00
2023-01-17T16:20:23.543Z,100.00
2023-01-17T16:23:27.120Z,100.00
2023-01-17T16:26:29.828Z,100.00
2023-01-17T16:29:32.675Z,100.00
2023-01-17T16:32:35.378Z,100.00
2023-01-17T16:35:40.040Z,100.00
2023-01-17T16:38:48.725Z,100.00
2023-01-17T16:41:51.639Z,100.00
2023-01-17T16:44:54.173Z,100.00
2023-01-17T16:47:57.039Z,100.00
2023-01-17T16:50:59.661Z,100.00
2023-01-17T16:54:02.549Z,100.00
2023-01-17T16:57:05.084Z,100.00
2023-01-17T17:00:10.929Z,100.00
